Data for 03/12/2006

Time Sea-Level Adjusted Pressure Absolute Pressure Temperature Relative Humidity Dew Point   
(mb) (inHg) (mb) (inHg) (C) (F) (%) (C) (F)
00:05 1009 29.8 838 24.75 -6.2 20.9 70 -10.9 12.4
00:10 1009 29.8 838 24.75 -6.2 20.8 69 -11 12.3
00:15 1009 29.8 838 24.75 -6.4 20.6 70 -11 12.2
00:20 1009 29.8 838 24.75 -6.4 20.4 70 -11.1 12
00:25 1009 29.8 838 24.75 -6.4 20.4 69 -11.2 11.8
00:30 1009 29.8 838 24.75 -6.4 20.4 69 -11.2 11.9
00:35 1009 29.8 838 24.75 -6.4 20.5 68 -11.4 11.6
00:40 1009 29.8 838 24.75 -6.4 20.4 68 -11.4 11.5
00:45 1009 29.8 838 24.75 -6.5 20.3 69 -11.3 11.6
00:50 1009 29.8 838 24.75 -6.6 20.2 69 -11.4 11.5
00:55 1009 29.8 838 24.75 -6.6 20.1 68 -11.6 11.2
01:00 1009 29.8 838 24.75 -6.6 20.1 69 -11.4 11.4
01:05 1009 29.8 838 24.75 -6.7 20 69 -11.4 11.4
01:10 1009 29.8 838 24.75 -6.7 20 69 -11.4 11.4
01:15 1009 29.8 838 24.75 -6.7 19.9 69 -11.5 11.3
01:20 1009 29.8 838 24.75 -6.9 19.7 71 -11.3 11.6
01:25 1009 29.8 838 24.75 -6.9 19.6 70 -11.4 11.4
01:30 1009 29.8 839 24.78 -7 19.5 72 -11.3 11.7
01:35 1009 29.8 839 24.78 -7.1 19.2 73 -11.2 11.9
01:40 1009 29.8 839 24.78 -7.2 19 73 -11.2 11.9
01:45 1010 29.83 839 24.78 -7.3 18.8 74 -11.1 11.9
01:50 1010 29.83 839 24.78 -7.3 18.9 74 -11.2 11.9
01:55 1010 29.83 839 24.78 -7.3 18.8 74 -11.3 11.7
02:00 1010 29.83 839 24.78 -7.3 18.8 73 -11.4 11.5
02:05 1010 29.83 839 24.78 -7.3 18.8 73 -11.4 11.5
02:10 1010 29.83 839 24.78 -7.4 18.7 73 -11.4 11.6
02:15 1010 29.83 839 24.78 -7.5 18.6 73 -11.4 11.4
02:20 1010 29.83 839 24.78 -7.4 18.6 73 -11.5 11.4
02:25 1010 29.83 839 24.78 -7.5 18.5 74 -11.5 11.4
02:30 1010 29.83 839 24.78 -7.5 18.4 74 -11.4 11.6
02:35 1010 29.83 839 24.78 -7.6 18.4 75 -11.3 11.6
02:40 1010 29.83 839 24.78 -7.6 18.3 75 -11.4 11.5
02:45 1010 29.83 839 24.78 -7.6 18.4 75 -11.2 11.8
02:50 1009 29.8 839 24.78 -7.6 18.3 75 -11.2 11.8
02:55 1010 29.83 839 24.78 -7.7 18.2 75 -11.3 11.6
03:00 1010 29.83 839 24.78 -7.7 18.2 75 -11.4 11.5
03:05 1010 29.83 839 24.78 -7.7 18.2 74 -11.6 11.2
03:10 1010 29.83 839 24.78 -7.6 18.4 73 -11.6 11
03:15 1010 29.83 839 24.78 -7.5 18.5 72 -11.7 11
03:20 1010 29.83 839 24.78 -7.6 18.3 73 -11.7 11
03:25 1010 29.83 839 24.78 -7.6 18.3 74 -11.6 11.2
03:30 1010 29.83 839 24.78 -7.7 18.1 73 -11.8 10.8
03:35 1010 29.83 839 24.78 -7.6 18.2 73 -11.7 10.9
03:40 1010 29.83 839 24.78 -7.6 18.4 72 -11.8 10.8
03:45 1010 29.83 839 24.78 -7.6 18.3 72 -11.8 10.8
03:50 1010 29.83 839 24.78 -7.6 18.3 71 -11.9 10.5
03:55 1010 29.83 839 24.78 -7.5 18.5 70 -12 10.4
04:00 1010 29.83 839 24.78 -7.5 18.5 71 -11.9 10.6
04:05 1010 29.83 839 24.78 -7.5 18.5 71 -11.9 10.6
04:10 1010 29.83 839 24.78 -7.6 18.4 71 -11.9 10.5
04:15 1010 29.83 839 24.78 -7.5 18.4 71 -11.9 10.5
04:20 1010 29.83 839 24.78 -7.6 18.4 72 -11.8 10.7
04:25 1010 29.83 839 24.78 -7.6 18.4 71 -11.9 10.6
04:30 1010 29.83 839 24.78 -7.5 18.4 72 -11.8 10.7
04:35 1010 29.83 839 24.78 -7.6 18.3 73 -11.7 10.9
04:40 1010 29.83 839 24.78 -7.6 18.3 72 -11.8 10.7
04:45 1010 29.83 839 24.78 -7.5 18.4 72 -11.8 10.8
04:50 1010 29.83 839 24.78 -7.6 18.4 73 -11.7 10.9
04:55 1010 29.83 839 24.78 -7.6 18.3 72 -11.8 10.8
05:00 1010 29.83 839 24.78 -7.6 18.3 73 -11.7 11
05:05 1010 29.83 839 24.78 -7.6 18.3 73 -11.7 11
05:10 1010 29.83 839 24.78 -7.7 18.2 73 -11.8 10.8
05:15 1010 29.83 839 24.78 -7.7 18.2 73 -11.8 10.7
05:20 1010 29.83 839 24.78 -7.7 18.2 73 -11.7 10.9
05:25 1010 29.83 839 24.78 -7.7 18.2 72 -11.8 10.7
05:30 1010 29.83 840 24.81 -7.6 18.3 72 -11.9 10.6
05:35 1010 29.83 840 24.81 -7.6 18.4 72 -11.8 10.7
05:40 1010 29.83 840 24.81 -7.6 18.4 72 -11.7 10.9
05:45 1011 29.85 840 24.81 -7.6 18.3 73 -11.7 11
05:50 1011 29.85 840 24.81 -7.6 18.3 72 -11.8 10.8
05:55 1011 29.85 840 24.81 -7.7 18.2 72 -11.8 10.7
06:00 1011 29.85 840 24.81 -7.7 18.1 73 -11.8 10.7
06:05 1011 29.85 840 24.81 -7.7 18.1 72 -11.9 10.5
06:10 1011 29.85 840 24.81 -7.9 17.8 73 -11.9 10.6
06:15 1011 29.85 840 24.81 -7.9 17.7 73 -12 10.5
06:20 1011 29.85 840 24.81 -7.9 17.7 73 -12 10.3
06:25 1011 29.85 840 24.81 -8 17.7 73 -12 10.5
06:30 1011 29.85 840 24.81 -8 17.6 71 -12.4 9.7
06:35 1011 29.85 840 24.81 -7.9 17.8 71 -12.3 9.8
06:40 1011 29.85 840 24.81 -8 17.7 71 -12.4 9.7
06:45 1011 29.85 840 24.81 -8 17.7 71 -12.4 9.6
06:50 1011 29.85 840 24.81 -8 17.6 70 -12.6 9.3
06:55 1011 29.85 840 24.81 -8 17.6 69 -12.6 9.2
07:00 1011 29.85 840 24.81 -8 17.6 69 -12.7 9.1
07:05 1011 29.85 840 24.81 -8 17.7 69 -12.7 9.2
07:10 1011 29.85 840 24.81 -8 17.7 69 -12.6 9.3
07:15 1011 29.85 840 24.81 -8 17.7 73 -12 10.4
07:20 1011 29.85 840 24.81 -8.2 17.2 76 -11.7 11
07:25 1011 29.85 840 24.81 -8.1 17.4 72 -12.3 9.9
07:30 1011 29.85 840 24.81 -8 17.6 71 -12.4 9.7
07:35 1011 29.85 840 24.81 -7.9 17.7 71 -12.2 10
07:40 1011 29.85 840 24.81 -8 17.6 71 -12.3 9.8
07:45 1011 29.85 840 24.81 -8 17.6 71 -12.4 9.6
07:50 1011 29.85 840 24.81 -8 17.6 71 -12.4 9.6
07:55 1011 29.85 840 24.81 -8 17.6 69 -12.7 9.2
08:00 1011 29.85 840 24.81 -8.1 17.4 70 -12.6 9.4
08:05 1011 29.85 840 24.81 -8.1 17.4 71 -12.4 9.6
08:10 1011 29.85 840 24.81 -8.1 17.4 72 -12.4 9.7
08:15 1011 29.85 840 24.81 -8 17.6 72 -12.3 9.9
08:20 1011 29.85 840 24.81 -7.9 17.8 71 -12.3 9.8
08:25 1011 29.85 841 24.83 -7.6 18.3 70 -12.2 10
08:30 1011 29.85 841 24.83 -7.5 18.5 69 -12.3 9.9
08:35 1011 29.85 841 24.83 -7.3 18.9 68 -12.3 9.9
08:40 1011 29.85 841 24.83 -7.2 19 66 -12.5 9.4
08:45 1011 29.85 841 24.83 -7.1 19.2 65 -12.6 9.3
08:50 1012 29.88 841 24.83 -7.2 19 66 -12.6 9.4
08:55 1012 29.88 841 24.83 -7.2 19.1 66 -12.5 9.5
09:00 1012 29.88 841 24.83 -6.8 19.8 63 -12.7 9.1
09:05 1012 29.88 841 24.83 -7.1 19.3 64 -12.9 8.8
09:10 1012 29.88 841 24.83 -7.2 19 64 -12.8 8.9
09:15 1011 29.85 841 24.83 -6.8 19.8 62 -12.8 8.9
09:20 1012 29.88 841 24.83 -6.8 19.8 64 -12.6 9.4
09:25 1012 29.88 841 24.83 -6.8 19.7 64 -12.7 9.2
09:30 1012 29.88 841 24.83 -6.9 19.5 63 -12.9 8.7
09:35 1012 29.88 841 24.83 -6.8 19.7 63 -12.8 8.9
09:40 1012 29.88 841 24.83 -6.8 19.8 60 -13.3 8.1
09:45 1012 29.88 841 24.83 -6.9 19.6 60 -13.5 7.7
09:50 1012 29.88 841 24.83 -7 19.4 59 -13.6 7.5
09:55 1012 29.88 841 24.83 -6.8 19.8 59 -13.5 7.7
10:00 1012 29.88 841 24.83 -6.7 19.9 58 -13.7 7.3
10:05 1011 29.85 841 24.83 -6.8 19.7 59 -13.6 7.6
10:10 1012 29.88 841 24.83 -6.7 20 59 -13.4 7.8
10:15 1011 29.85 841 24.83 -6.7 19.9 59 -13.5 7.6
10:20 1011 29.85 841 24.83 -6.5 20.3 58 -13.6 7.6
10:25 1011 29.85 841 24.83 -6.6 20.1 58 -13.6 7.5
10:30 1011 29.85 841 24.83 -6.5 20.2 57 -13.7 7.3
10:35 1011 29.85 841 24.83 -6.3 20.7 57 -13.6 7.6
10:40 1011 29.85 841 24.83 -5.7 21.7 53 -13.9 6.9
10:45 1011 29.85 841 24.83 -5.1 22.7 53 -13.3 8.1
10:50 1011 29.85 841 24.83 -5.4 22.3 53 -13.5 7.7
10:55 1011 29.85 841 24.83 -5.6 21.9 53 -13.9 7.1
11:00 1011 29.85 841 24.83 -5.9 21.4 54 -13.7 7.3
11:05 1011 29.85 841 24.83 -6 21.1 54 -14 6.8
11:10 1011 29.85 841 24.83 -6 21.3 54 -13.8 7.1
11:15 1011 29.85 841 24.83 -5.9 21.4 53 -14.1 6.7
11:20 1011 29.85 841 24.83 -6 21.3 53 -14.1 6.7
11:25 1011 29.85 841 24.83 -5.8 21.6 51 -14.3 6.2
11:30 1011 29.85 841 24.83 -5.8 21.5 52 -14.2 6.5
11:35 1011 29.85 841 24.83 -5.7 21.8 51 -14.3 6.2
11:40 1011 29.85 841 24.83 -5.4 22.3 49 -14.4 6
11:45 1011 29.85 841 24.83 -4.8 23.3 48 -14.3 6.2
11:50 1011 29.85 841 24.83 -4.8 23.4 50 -13.8 7.2
11:55 1011 29.85 840 24.81 -4.7 23.6 47 -14.4 6.1
12:00 1011 29.85 841 24.83 -4.5 23.9 49 -13.7 7.3
12:05 1011 29.85 841 24.83 -4.9 23.2 51 -13.6 7.5
12:10 1011 29.85 841 24.83 -5 23 50 -13.8 7.1
12:15 1011 29.85 841 24.83 -4.9 23.2 49 -14 6.8
12:20 1011 29.85 841 24.83 -4.4 24.1 49 -13.6 7.5
12:25 1011 29.85 841 24.83 -4.1 24.6 46 -14.1 6.5
12:30 1011 29.85 841 24.83 -3.8 25.1 45 -14.2 6.5
12:35 1011 29.85 841 24.83 -4 24.8 49 -13.3 8
12:40 1011 29.85 841 24.83 -4.1 24.7 47 -13.7 7.4
12:45 1011 29.85 841 24.83 -4.4 24.1 47 -14.1 6.6
12:50 1011 29.85 841 24.83 -4.2 24.4 46 -14.1 6.6
12:55 1011 29.85 841 24.83 -4.6 23.8 47 -14.1 6.6
13:00 1011 29.85 841 24.83 -4.3 24.2 49 -13.6 7.5
13:05 1011 29.85 840 24.81 -4.3 24.2 49 -13.6 7.6
13:10 1011 29.85 840 24.81 -4.1 24.6 48 -13.5 7.8
13:15 1011 29.85 840 24.81 -4.2 24.4 49 -13.3 8
13:20 1011 29.85 840 24.81 -4.2 24.5 50 -13.2 8.2
13:25 1011 29.85 840 24.81 -4.1 24.7 50 -13.1 8.3
13:30 1011 29.85 840 24.81 -4.4 24.1 51 -13.2 8.2
13:35 1011 29.85 840 24.81 -4.3 24.2 48 -13.7 7.3
13:40 1011 29.85 840 24.81 -4.3 24.2 47 -14.1 6.6
13:45 1011 29.85 840 24.81 -4.3 24.3 51 -13.1 8.5
13:50 1011 29.85 840 24.81 -4.3 24.2 51 -12.9 8.7
13:55 1011 29.85 840 24.81 -4.6 23.8 51 -13.4 8
14:00 1011 29.85 840 24.81 -4.4 24 49 -13.5 7.7
14:05 1011 29.85 840 24.81 -4.2 24.4 50 -13.1 8.4
14:10 1011 29.85 840 24.81 -4.1 24.6 51 -12.8 8.9
14:15 1011 29.85 840 24.81 -4.2 24.4 52 -12.6 9.4
14:20 1011 29.85 840 24.81 -3.8 25.2 49 -12.9 8.7
14:25 1011 29.85 840 24.81 -4 24.7 51 -12.9 8.8
14:30 1011 29.85 840 24.81 -4.2 24.4 51 -13 8.7
14:35 1011 29.85 840 24.81 -4.4 24 53 -12.7 9.2
14:40 1011 29.85 841 24.83 -3.7 25.4 49 -12.9 8.7
14:45 1011 29.85 841 24.83 -3.6 25.5 51 -12.4 9.7
14:50 1011 29.85 841 24.83 -4.2 24.5 52 -12.7 9.1
14:55 1012 29.88 841 24.83 -4 24.8 52 -12.6 9.4
15:00 1011 29.85 841 24.83 -3.9 24.9 51 -12.7 9.2
15:05 1012 29.88 841 24.83 -4 24.7 51 -12.7 9.2
15:10 1012 29.88 841 24.83 -3.5 25.7 48 -12.9 8.7
15:15 1012 29.88 841 24.83 -3.5 25.6 50 -12.4 9.6
15:20 1012 29.88 841 24.83 -3.6 25.5 49 -12.8 8.9
15:25 1012 29.88 841 24.83 -4 24.7 52 -12.5 9.6
15:30 1012 29.88 841 24.83 -3.9 25 50 -12.8 9
15:35 1012 29.88 841 24.83 -3.8 25.2 50 -12.7 9.1
15:40 1012 29.88 841 24.83 -3.9 25 51 -12.7 9.2
15:45 1012 29.88 841 24.83 -4.3 24.3 51 -12.8 8.9
15:50 1012 29.88 841 24.83 -4 24.8 50 -13 8.7
15:55 1012 29.88 841 24.83 -4 24.8 51 -12.6 9.3
16:00 1012 29.88 841 24.83 -4.5 23.9 54 -12.6 9.3
16:05 1012 29.88 841 24.83 -4.4 24 52 -12.8 9
16:10 1012 29.88 841 24.83 -4.4 24.1 51 -13.1 8.4
16:15 1012 29.88 841 24.83 -4.3 24.3 52 -12.8 8.9
16:20 1012 29.88 841 24.83 -4.4 24 52 -12.8 8.9
16:25 1012 29.88 841 24.83 -4.2 24.4 52 -12.6 9.4
16:30 1012 29.88 841 24.83 -4.2 24.4 52 -12.6 9.3
16:35 1012 29.88 841 24.83 -4.3 24.2 52 -12.8 8.9
16:40 1012 29.88 841 24.83 -4.4 24.1 52 -12.7 9.1
16:45 1012 29.88 841 24.83 -4.6 23.8 54 -12.5 9.4
16:50 1012 29.88 841 24.83 -4.5 23.9 53 -12.6 9.3
16:55 1012 29.88 841 24.83 -4.4 24 54 -12.4 9.6
17:00 1012 29.88 841 24.83 -4.6 23.8 53 -12.8 8.9
17:05 1012 29.88 841 24.83 -4.4 24.1 53 -12.6 9.4
17:10 1012 29.88 841 24.83 -4.2 24.4 53 -12.3 9.8
17:15 1012 29.88 842 24.86 -4.6 23.8 53 -12.7 9.1
17:20 1012 29.88 842 24.86 -4.5 23.8 54 -12.6 9.3
17:25 1012 29.88 842 24.86 -4.3 24.2 54 -12.2 10
17:30 1012 29.88 842 24.86 -4.5 24 54 -12.5 9.4
17:35 1012 29.88 842 24.86 -4.7 23.6 56 -12.2 10
17:40 1013 29.91 842 24.86 -5.1 22.8 57 -12.3 9.8
17:45 1013 29.91 842 24.86 -5.3 22.4 57 -12.7 9.2
17:50 1013 29.91 842 24.86 -5.3 22.4 57 -12.5 9.5
17:55 1013 29.91 842 24.86 -5.4 22.3 58 -12.4 9.7
18:00 1013 29.91 842 24.86 -5.5 22.1 59 -12.2 10
18:05 1013 29.91 842 24.86 -5.8 21.5 60 -12.4 9.7
18:10 1013 29.91 842 24.86 -6 21.2 61 -12.4 9.7
18:15 1013 29.91 842 24.86 -6.1 21 61 -12.4 9.8
18:20 1013 29.91 842 24.86 -6.3 20.7 62 -12.3 9.8
18:25 1013 29.91 842 24.86 -6.3 20.6 63 -12.3 9.9
18:30 1013 29.91 842 24.86 -6.4 20.5 63 -12.4 9.7
18:35 1013 29.91 842 24.86 -6.5 20.3 63 -12.4 9.8
18:40 1013 29.91 842 24.86 -6.6 20 64 -12.3 9.8
18:45 1013 29.91 842 24.86 -6.8 19.8 65 -12.4 9.7
18:50 1013 29.91 842 24.86 -6.8 19.8 65 -12.4 9.7
18:55 1013 29.91 842 24.86 -6.9 19.7 66 -12.3 9.9
19:00 1013 29.91 842 24.86 -6.9 19.6 66 -12.3 9.9
19:05 1013 29.91 842 24.86 -7 19.4 66 -12.3 9.9
19:10 1013 29.91 842 24.86 -7.1 19.3 66 -12.4 9.7
19:15 1013 29.91 842 24.86 -7.2 19.1 66 -12.4 9.7
19:20 1013 29.91 842 24.86 -7.2 19 67 -12.4 9.7
19:25 1013 29.91 842 24.86 -7.3 18.8 68 -12.3 9.8
19:30 1013 29.91 842 24.86 -7.4 18.6 68 -12.4 9.7
19:35 1013 29.91 842 24.86 -7.5 18.5 69 -12.3 9.8
19:40 1013 29.91 842 24.86 -7.6 18.4 69 -12.3 9.9
19:45 1013 29.91 843 24.89 -7.6 18.3 70 -12.2 10.1
19:50 1013 29.91 843 24.89 -7.8 18 70 -12.3 9.9
19:55 1013 29.91 843 24.89 -7.8 17.9 71 -12.2 10.1
20:00 1013 29.91 843 24.89 -7.9 17.8 72 -12.1 10.1
20:05 1013 29.91 843 24.89 -8 17.7 72 -12.1 10.2
20:10 1013 29.91 843 24.89 -8 17.6 73 -12 10.3
20:15 1014 29.94 843 24.89 -8.1 17.4 74 -11.9 10.6
20:20 1014 29.94 843 24.89 -8.2 17.2 76 -11.7 10.9
20:25 1014 29.94 843 24.89 -8.2 17.2 77 -11.6 11.1
20:30 1014 29.94 843 24.89 -8.3 17.1 77 -11.7 11
20:35 1014 29.94 843 24.89 -8.3 17 77 -11.6 11.1
20:40 1014 29.94 843 24.89 -8.3 17 78 -11.6 11.2
20:45 1014 29.94 843 24.89 -8.4 16.9 78 -11.6 11.1
20:50 1014 29.94 843 24.89 -8.4 17 78 -11.5 11.2
20:55 1014 29.94 843 24.89 -8.4 16.9 78 -11.6 11.1
21:00 1014 29.94 843 24.89 -8.5 16.8 78 -11.7 11
21:05 1014 29.94 843 24.89 -8.4 16.8 78 -11.6 11.1
21:10 1014 29.94 843 24.89 -8.5 16.7 78 -11.7 10.9
21:15 1014 29.94 843 24.89 -8.6 16.6 78 -11.7 10.9
21:20 1014 29.94 843 24.89 -8.7 16.4 77 -12 10.5
21:25 1014 29.94 843 24.89 -8.9 16.1 77 -12.2 10
21:30 1014 29.94 843 24.89 -9 15.7 77 -12.4 9.6
21:35 1014 29.94 843 24.89 -9.1 15.7 77 -12.4 9.6
21:40 1014 29.94 843 24.89 -9.2 15.4 77 -12.5 9.5
21:45 1014 29.94 843 24.89 -9.2 15.4 77 -12.5 9.6
21:50 1014 29.94 843 24.89 -9.2 15.5 77 -12.5 9.5
21:55 1014 29.94 843 24.89 -9.2 15.4 77 -12.5 9.5
22:00 1014 29.94 843 24.89 -9.3 15.3 77 -12.6 9.3
22:05 1014 29.94 843 24.89 -9.3 15.3 77 -12.6 9.4
22:10 1014 29.94 843 24.89 -9.2 15.5 77 -12.5 9.5
22:15 1014 29.94 843 24.89 -9 15.8 76 -12.5 9.6
22:20 1014 29.94 843 24.89 -9 15.7 76 -12.6 9.4
22:25 1014 29.94 843 24.89 -9 15.8 75 -12.6 9.2
22:30 1014 29.94 843 24.89 -9.1 15.7 75 -12.7 9.2
22:35 1014 29.94 843 24.89 -9.1 15.7 75 -12.7 9.1
22:40 1014 29.94 843 24.89 -9.1 15.6 75 -12.8 9
22:45 1014 29.94 843 24.89 -9.2 15.4 75 -12.8 8.9
22:50 1014 29.94 843 24.89 -9.3 15.2 76 -12.9 8.8
22:55 1014 29.94 843 24.89 -9.4 15.1 76 -12.9 8.8
23:00 1014 29.94 843 24.89 -9.4 15 76 -13 8.7
23:05 1014 29.94 843 24.89 -9.4 15 76 -13 8.7
23:10 1014 29.94 843 24.89 -9.5 14.8 76 -13.1 8.5
23:15 1014 29.94 843 24.89 -9.6 14.8 76 -13.1 8.4
23:20 1014 29.94 843 24.89 -9.7 14.5 76 -13.2 8.3
23:25 1014 29.94 843 24.89 -9.9 14.1 76 -13.3 8
23:30 1014 29.94 843 24.89 -10 13.9 76 -13.5 7.8
23:35 1014 29.94 843 24.89 -10 14 77 -13.4 7.9
23:40 1014 29.94 843 24.89 -10.1 13.9 76 -13.5 7.7
23:45 1014 29.94 843 24.89 -10.1 13.8 77 -13.5 7.7
23:50 1014 29.94 843 24.89 -10.2 13.6 77 -13.5 7.6
23:55 1014 29.94 843 24.89 -10.3 13.5 77 -13.5 7.6
24:00 1014 29.94 843 24.89 -10.3 13.4 78 -13.5 7.7